Pagina principale
METAR-TAF:

METAR-TAF

Aeroporti :

Lüderitz, Namibia

latitudine: 26-41S, longitudine: 015-15E, altezza: 130 m

Osservazione

Il bollettino è stato emesso 4 ore e 18 minuti fa, alle 00:00 UTC
Vento 6 kt da sud
Temperature 15°C
Umidità 82%
Pressione 1010 hPa

METAR: FYLZ 300000Z AUTO 18006KT //// // ////// 15/12 Q1010

Ora: 06:18 (04:18 UTC)

Previsione

Il bollettino è stato emesso 14 ore e 18 minuti fa, alle 14:00 UTC
Previsione valida dal 29 alle 15 UTC al 30 alle 00 UTC
Vento 23 kt da sud/sud-ovest
Visibilità 10 km o più
nessuna nube inferiore a 1500 m e nessun cumulonembo
Evoluzione graduale
dal 29 alle 19 UTC al 29 alle 21 UTC
Vento 13 kt da sud/sud-est

TAF: FYLZ 291400Z 2915/3000 20023KT CAVOK BECMG 2919/2921 16013KT

Osservazioni e previsioni meteorologiche di più di 4000 aeroporti (messaggi METAR e TAF).

Le stazioni disponibili sono rappresentate dai dischi gialli e rossi sulla carta.

Puntare il mouse per vedere il nome della stazione.

Clicca sopra per visualizzare le osservazioni e previsioni meteorologiche.

Per cambiare la mappa : fare clic sui pulsanti verdi con una croce nera per ingrandire, il pulsante verde con un trattino per diminuire, o sulla freccia verde per le mappe adiacenti.


METAR-TAF: